sensor_id;sensor_type;location;lat;lon;timestamp;pressure;altitude;pressure_sealevel;temperature;humidity
67738;BME280;54534;43.612;1.572;2023-02-13T00:02:14;100646.38;;;17.22;43.17
67738;BME280;54534;43.612;1.572;2023-02-13T00:04:40;100646.41;;;17.20;43.40
67738;BME280;54534;43.612;1.572;2023-02-13T00:07:07;100650.03;;;17.19;43.03
67738;BME280;54534;43.612;1.572;2023-02-13T00:09:33;100647.38;;;17.19;42.99
67738;BME280;54534;43.612;1.572;2023-02-13T00:11:58;100645.66;;;17.18;42.90
67738;BME280;54534;43.612;1.572;2023-02-13T00:14:24;100648.31;;;17.18;42.93
67738;BME280;54534;43.612;1.572;2023-02-13T00:16:49;100643.09;;;17.17;43.16
67738;BME280;54534;43.612;1.572;2023-02-13T00:19:15;100651.94;;;17.16;43.01
67738;BME280;54534;43.612;1.572;2023-02-13T00:21:41;100648.44;;;17.15;42.73
67738;BME280;54534;43.612;1.572;2023-02-13T00:24:06;100646.78;;;17.12;42.81
67738;BME280;54534;43.612;1.572;2023-02-13T00:26:32;100645.84;;;17.14;43.02
67738;BME280;54534;43.612;1.572;2023-02-13T00:28:57;100645.91;;;17.12;43.01
67738;BME280;54534;43.612;1.572;2023-02-13T00:31:23;100656.56;;;17.12;42.73
67738;BME280;54534;43.612;1.572;2023-02-13T00:33:48;100640.69;;;17.10;42.97
67738;BME280;54534;43.612;1.572;2023-02-13T00:36:20;100644.28;;;17.09;42.74
67738;BME280;54534;43.612;1.572;2023-02-13T00:38:46;100647.91;;;17.08;42.90
67738;BME280;54534;43.612;1.572;2023-02-13T00:41:13;100640.84;;;17.07;42.70
67738;BME280;54534;43.612;1.572;2023-02-13T00:43:38;100647.91;;;17.08;42.59
67738;BME280;54534;43.612;1.572;2023-02-13T00:46:04;100650.59;;;17.07;42.45
67738;BME280;54534;43.612;1.572;2023-02-13T00:48:32;100647.13;;;17.06;42.54
67738;BME280;54534;43.612;1.572;2023-02-13T00:50:58;100647.19;;;17.05;42.56
67738;BME280;54534;43.612;1.572;2023-02-13T00:53:25;100639.19;;;17.05;42.53
67738;BME280;54534;43.612;1.572;2023-02-13T00:55:50;100649.06;;;17.03;42.64
67738;BME280;54534;43.612;1.572;2023-02-13T00:58:17;100643.75;;;17.03;42.44
67738;BME280;54534;43.612;1.572;2023-02-13T01:00:43;100649.97;;;17.01;42.48
67738;BME280;54534;43.612;1.572;2023-02-13T01:03:10;100655.28;;;17.01;42.48
67738;BME280;54534;43.612;1.572;2023-02-13T01:05:36;100650.94;;;17.00;42.58
67738;BME280;54534;43.612;1.572;2023-02-13T01:08:01;100648.34;;;16.99;42.51
67738;BME280;54534;43.612;1.572;2023-02-13T01:10:27;100646.66;;;16.98;42.72
67738;BME280;54534;43.612;1.572;2023-02-13T01:12:52;100653.75;;;16.97;42.52
67738;BME280;54534;43.612;1.572;2023-02-13T01:15:18;100656.41;;;16.97;42.51
67738;BME280;54534;43.612;1.572;2023-02-13T01:17:44;100658.19;;;16.97;42.31
67738;BME280;54534;43.612;1.572;2023-02-13T01:20:11;100652.00;;;16.96;42.16
67738;BME280;54534;43.612;1.572;2023-02-13T01:22:37;100660.94;;;16.95;42.48
67738;BME280;54534;43.612;1.572;2023-02-13T01:25:02;100658.28;;;16.95;42.10
67738;BME280;54534;43.612;1.572;2023-02-13T01:27:28;100660.06;;;16.95;42.25
67738;BME280;54534;43.612;1.572;2023-02-13T01:29:54;100660.16;;;16.93;42.38
67738;BME280;54534;43.612;1.572;2023-02-13T01:32:19;100661.97;;;16.93;42.42
67738;BME280;54534;43.612;1.572;2023-02-13T01:34:45;100669.06;;;16.92;42.42
67738;BME280;54534;43.612;1.572;2023-02-13T01:37:11;100664.66;;;16.91;42.18
67738;BME280;54534;43.612;1.572;2023-02-13T01:39:36;100657.66;;;16.90;42.30
67738;BME280;54534;43.612;1.572;2023-02-13T01:42:03;100660.31;;;16.90;42.37
67738;BME280;54534;43.612;1.572;2023-02-13T01:44:50;100655.16;;;16.87;42.14
67738;BME280;54534;43.612;1.572;2023-02-13T01:47:38;100660.38;;;16.88;42.03
67738;BME280;54534;43.612;1.572;2023-02-13T01:50:22;100661.38;;;16.86;42.42
67738;BME280;54534;43.612;1.572;2023-02-13T01:52:56;100655.25;;;16.85;42.16
67738;BME280;54534;43.612;1.572;2023-02-13T01:55:25;100653.50;;;16.84;42.28
67738;BME280;54534;43.612;1.572;2023-02-13T01:57:57;100657.94;;;16.84;42.33
67738;BME280;54534;43.612;1.572;2023-02-13T02:00:24;100658.03;;;16.82;42.37
67738;BME280;54534;43.612;1.572;2023-02-13T02:02:55;100665.16;;;16.82;42.19
67738;BME280;54534;43.612;1.572;2023-02-13T02:05:25;100659.81;;;16.82;42.18
67738;BME280;54534;43.612;1.572;2023-02-13T02:07:53;100658.09;;;16.81;42.03
67738;BME280;54534;43.612;1.572;2023-02-13T02:10:19;100669.59;;;16.81;42.19
67738;BME280;54534;43.612;1.572;2023-02-13T02:12:52;100657.22;;;16.80;42.05
67738;BME280;54534;43.612;1.572;2023-02-13T02:15:22;100670.59;;;16.78;42.17
67738;BME280;54534;43.612;1.572;2023-02-13T02:17:47;100665.28;;;16.78;41.97
67738;BME280;54534;43.612;1.572;2023-02-13T02:28:30;100675.19;;;16.75;42.08
67738;BME280;54534;43.612;1.572;2023-02-13T02:31:18;100676.06;;;16.75;42.13
67738;BME280;54534;43.612;1.572;2023-02-13T02:36:44;100674.34;;;16.74;42.26
67738;BME280;54534;43.612;1.572;2023-02-13T02:42:17;100672.63;;;16.73;42.10
67738;BME280;54534;43.612;1.572;2023-02-13T02:44:55;100672.63;;;16.73;42.00
67738;BME280;54534;43.612;1.572;2023-02-13T02:47:39;100676.91;;;16.76;42.00
67738;BME280;54534;43.612;1.572;2023-02-13T02:50:34;100673.41;;;16.75;42.05
67738;BME280;54534;43.612;1.572;2023-02-13T02:53:06;100678.66;;;16.77;41.94
67738;BME280;54534;43.612;1.572;2023-02-13T02:55:56;100681.22;;;16.78;41.86
67738;BME280;54534;43.612;1.572;2023-02-13T02:58:30;100676.69;;;16.81;42.01
67738;BME280;54534;43.612;1.572;2023-02-13T03:01:17;100685.53;;;16.81;41.91
67738;BME280;54534;43.612;1.572;2023-02-13T03:04:04;100682.78;;;16.83;41.86
67738;BME280;54534;43.612;1.572;2023-02-13T03:06:53;100686.25;;;16.85;41.87
67738;BME280;54534;43.612;1.572;2023-02-13T03:09:31;100679.06;;;16.87;41.71
67738;BME280;54534;43.612;1.572;2023-02-13T03:12:22;100679.91;;;16.87;41.89
67738;BME280;54534;43.612;1.572;2023-02-13T03:15:07;100685.94;;;16.91;41.57
67738;BME280;54534;43.612;1.572;2023-02-13T03:17:33;100685.94;;;16.91;41.96
67738;BME280;54534;43.612;1.572;2023-02-13T03:20:41;100678.75;;;16.93;41.71
67738;BME280;54534;43.612;1.572;2023-02-13T03:26:41;100680.31;;;16.97;41.61
67738;BME280;54534;43.612;1.572;2023-02-13T03:32:36;100679.41;;;16.98;41.52
67738;BME280;54534;43.612;1.572;2023-02-13T03:40:55;100676.56;;;17.01;41.39
67738;BME280;54534;43.612;1.572;2023-02-13T03:46:14;100682.69;;;17.04;41.26
67738;BME280;54534;43.612;1.572;2023-02-13T03:48:42;100674.63;;;17.05;41.54
67738;BME280;54534;43.612;1.572;2023-02-13T03:51:41;100679.84;;;17.07;41.38
67738;BME280;54534;43.612;1.572;2023-02-13T03:54:40;100686.97;;;17.06;41.40
67738;BME280;54534;43.612;1.572;2023-02-13T03:57:28;100684.31;;;17.06;41.47
67738;BME280;54534;43.612;1.572;2023-02-13T04:00:15;100683.38;;;17.07;41.43
67738;BME280;54534;43.612;1.572;2023-02-13T04:02:52;100686.88;;;17.08;41.33
67738;BME280;54534;43.612;1.572;2023-02-13T04:05:24;100685.97;;;17.09;41.48
67738;BME280;54534;43.612;1.572;2023-02-13T04:07:52;100691.34;;;17.07;41.47
67738;BME280;54534;43.612;1.572;2023-02-13T04:10:18;100693.94;;;17.09;41.31
67738;BME280;54534;43.612;1.572;2023-02-13T04:13:05;100685.97;;;17.09;41.24
67738;BME280;54534;43.612;1.572;2023-02-13T04:15:47;100697.38;;;17.11;41.07
67738;BME280;54534;43.612;1.572;2023-02-13T04:20:39;100701.81;;;17.10;41.26
67738;BME280;54534;43.612;1.572;2023-02-13T04:23:07;100703.56;;;17.11;41.06
67738;BME280;54534;43.612;1.572;2023-02-13T04:25:35;100698.16;;;17.13;41.09
67738;BME280;54534;43.612;1.572;2023-02-13T04:28:01;100711.44;;;17.13;40.99
67738;BME280;54534;43.612;1.572;2023-02-13T04:30:27;100720.34;;;17.12;40.91
67738;BME280;54534;43.612;1.572;2023-02-13T04:32:52;100707.00;;;17.14;41.01
67738;BME280;54534;43.612;1.572;2023-02-13T04:35:18;100710.56;;;17.12;40.92
67738;BME280;54534;43.612;1.572;2023-02-13T04:37:43;100713.16;;;17.14;41.34
67738;BME280;54534;43.612;1.572;2023-02-13T04:40:09;100712.31;;;17.14;41.28
67738;BME280;54534;43.612;1.572;2023-02-13T04:42:35;100710.50;;;17.14;40.94
67738;BME280;54534;43.612;1.572;2023-02-13T04:45:00;100716.75;;;17.13;41.03
67738;BME280;54534;43.612;1.572;2023-02-13T04:47:26;100718.47;;;17.14;41.14
67738;BME280;54534;43.612;1.572;2023-02-13T04:49:51;100713.16;;;17.14;40.69
67738;BME280;54534;43.612;1.572;2023-02-13T04:52:17;100722.84;;;17.15;40.76
67738;BME280;54534;43.612;1.572;2023-02-13T04:54:42;100720.19;;;17.15;41.05
67738;BME280;54534;43.612;1.572;2023-02-13T04:57:07;100720.19;;;17.15;41.07
67738;BME280;54534;43.612;1.572;2023-02-13T04:59:33;100728.16;;;17.15;40.82
67738;BME280;54534;43.612;1.572;2023-02-13T05:01:58;100726.31;;;17.17;40.75
67738;BME280;54534;43.612;1.572;2023-02-13T05:04:24;100715.69;;;17.17;40.65
67738;BME280;54534;43.612;1.572;2023-02-13T05:06:50;100720.06;;;17.18;40.63
67738;BME280;54534;43.612;1.572;2023-02-13T05:09:16;100718.28;;;17.19;40.87
67738;BME280;54534;43.612;1.572;2023-02-13T05:11:41;100721.81;;;17.19;40.44
67738;BME280;54534;43.612;1.572;2023-02-13T05:14:06;100725.28;;;17.20;40.81
67738;BME280;54534;43.612;1.572;2023-02-13T05:16:32;100719.91;;;17.21;40.60
67738;BME280;54534;43.612;1.572;2023-02-13T05:18:57;100725.25;;;17.21;40.50
67738;BME280;54534;43.612;1.572;2023-02-13T05:21:23;100725.25;;;17.21;40.49
67738;BME280;54534;43.612;1.572;2023-02-13T05:24:07;100717.19;;;17.23;40.76
67738;BME280;54534;43.612;1.572;2023-02-13T05:26:32;100722.44;;;17.25;40.64
67738;BME280;54534;43.612;1.572;2023-02-13T05:28:58;100719.84;;;17.23;40.77
67738;BME280;54534;43.612;1.572;2023-02-13T05:31:42;100716.25;;;17.24;40.48
67738;BME280;54534;43.612;1.572;2023-02-13T05:34:07;100725.09;;;17.25;40.63
67738;BME280;54534;43.612;1.572;2023-02-13T05:36:33;100720.63;;;17.25;40.49
67738;BME280;54534;43.612;1.572;2023-02-13T05:38:58;100718.81;;;17.26;40.62
67738;BME280;54534;43.612;1.572;2023-02-13T05:41:24;100713.50;;;17.26;40.30
67738;BME280;54534;43.612;1.572;2023-02-13T05:43:49;100715.31;;;17.25;40.48
67738;BME280;54534;43.612;1.572;2023-02-13T05:46:15;100726.78;;;17.26;41.01
67738;BME280;54534;43.612;1.572;2023-02-13T05:48:40;100720.56;;;17.27;40.47
67738;BME280;54534;43.612;1.572;2023-02-13T05:51:06;100725.88;;;17.27;40.83
67738;BME280;54534;43.612;1.572;2023-02-13T05:53:32;100721.41;;;17.27;40.37
67738;BME280;54534;43.612;1.572;2023-02-13T05:56:00;100724.06;;;17.27;40.75
67738;BME280;54534;43.612;1.572;2023-02-13T05:58:27;100728.53;;;17.27;40.84
67738;BME280;54534;43.612;1.572;2023-02-13T06:00:55;100725.88;;;17.27;40.50
67738;BME280;54534;43.612;1.572;2023-02-13T06:03:22;100721.31;;;17.29;40.66
67738;BME280;54534;43.612;1.572;2023-02-13T06:05:47;100728.44;;;17.28;40.49
67738;BME280;54534;43.612;1.572;2023-02-13T06:08:12;100725.78;;;17.28;40.39
67738;BME280;54534;43.612;1.572;2023-02-13T06:10:38;100727.50;;;17.29;40.68
67738;BME280;54534;43.612;1.572;2023-02-13T06:13:04;100729.25;;;17.30;40.75
67738;BME280;54534;43.612;1.572;2023-02-13T06:15:29;100724.84;;;17.29;40.82
67738;BME280;54534;43.612;1.572;2023-02-13T06:17:55;100729.25;;;17.30;40.54
67738;BME280;54534;43.612;1.572;2023-02-13T06:20:20;100728.38;;;17.30;40.62
67738;BME280;54534;43.612;1.572;2023-02-13T06:22:49;100732.72;;;17.31;40.94
67738;BME280;54534;43.612;1.572;2023-02-13T06:25:15;100727.41;;;17.31;41.11
67738;BME280;54534;43.612;1.572;2023-02-13T06:27:40;100724.75;;;17.31;41.26
67738;BME280;54534;43.612;1.572;2023-02-13T06:30:06;100731.81;;;17.32;40.88
67738;BME280;54534;43.612;1.572;2023-02-13T06:32:32;100727.41;;;17.31;40.95
67738;BME280;54534;43.612;1.572;2023-02-13T06:34:57;100732.72;;;17.31;40.97
67738;BME280;54534;43.612;1.572;2023-02-13T06:37:23;100730.94;;;17.31;41.32
67738;BME280;54534;43.612;1.572;2023-02-13T06:39:48;100730.06;;;17.31;41.13
67738;BME280;54534;43.612;1.572;2023-02-13T06:42:13;100732.69;;;17.32;40.91
67738;BME280;54534;43.612;1.572;2023-02-13T06:44:39;100737.13;;;17.32;40.88
67738;BME280;54534;43.612;1.572;2023-02-13T06:47:04;100738.00;;;17.32;41.27
67738;BME280;54534;43.612;1.572;2023-02-13T06:49:30;100741.44;;;17.34;41.18
67738;BME280;54534;43.612;1.572;2023-02-13T06:51:55;100740.56;;;17.34;41.30
67738;BME280;54534;43.612;1.572;2023-02-13T06:54:20;100739.63;;;17.35;40.85
67738;BME280;54534;43.612;1.572;2023-02-13T06:56:46;100738.78;;;17.34;41.13
67738;BME280;54534;43.612;1.572;2023-02-13T06:59:11;100749.31;;;17.36;40.95
67738;BME280;54534;43.612;1.572;2023-02-13T07:01:37;100749.25;;;17.38;41.22
67738;BME280;54534;43.612;1.572;2023-02-13T07:04:02;100746.59;;;17.38;41.02
67738;BME280;54534;43.612;1.572;2023-02-13T07:06:27;100750.13;;;17.38;40.85
67738;BME280;54534;43.612;1.572;2023-02-13T07:08:53;100749.25;;;17.38;41.08
67738;BME280;54534;43.612;1.572;2023-02-13T07:11:21;100752.78;;;17.38;40.99
67738;BME280;54534;43.612;1.572;2023-02-13T07:13:47;100749.16;;;17.39;41.01
67738;BME280;54534;43.612;1.572;2023-02-13T07:16:12;100753.63;;;17.39;41.07
67738;BME280;54534;43.612;1.572;2023-02-13T07:18:38;100750.94;;;17.39;41.12
67738;BME280;54534;43.612;1.572;2023-02-13T07:21:03;100762.41;;;17.41;40.88
67738;BME280;54534;43.612;1.572;2023-02-13T07:23:29;100758.00;;;17.40;41.07
67738;BME280;54534;43.612;1.572;2023-02-13T07:25:57;100768.63;;;17.40;41.31
67738;BME280;54534;43.612;1.572;2023-02-13T07:28:23;100767.78;;;17.39;40.88
67738;BME280;54534;43.612;1.572;2023-02-13T07:30:48;100775.75;;;17.39;40.79
67738;BME280;54534;43.612;1.572;2023-02-13T07:33:14;100773.97;;;17.40;41.14
67738;BME280;54534;43.612;1.572;2023-02-13T07:35:45;100779.28;;;17.40;40.91
67738;BME280;54534;43.612;1.572;2023-02-13T07:38:11;100782.81;;;17.40;40.84
67738;BME280;54534;43.612;1.572;2023-02-13T07:40:36;100789.00;;;17.41;40.88
67738;BME280;54534;43.612;1.572;2023-02-13T07:43:01;100788.13;;;17.40;40.74
67738;BME280;54534;43.612;1.572;2023-02-13T07:45:27;100787.25;;;17.40;40.93
67738;BME280;54534;43.612;1.572;2023-02-13T07:47:56;100786.34;;;17.41;40.86
67738;BME280;54534;43.612;1.572;2023-02-13T07:50:21;100787.16;;;17.41;40.88
67738;BME280;54534;43.612;1.572;2023-02-13T07:52:53;100781.84;;;17.41;40.60
67738;BME280;54534;43.612;1.572;2023-02-13T07:55:18;100785.47;;;17.40;40.75
67738;BME280;54534;43.612;1.572;2023-02-13T07:57:44;100780.16;;;17.40;40.88
67738;BME280;54534;43.612;1.572;2023-02-13T08:00:09;100779.38;;;17.38;40.86
67738;BME280;54534;43.612;1.572;2023-02-13T08:02:35;100780.19;;;17.39;40.69
67738;BME280;54534;43.612;1.572;2023-02-13T08:05:00;100780.19;;;17.39;40.52
67738;BME280;54534;43.612;1.572;2023-02-13T08:07:26;100784.69;;;17.38;40.43
67738;BME280;54534;43.612;1.572;2023-02-13T08:09:51;100782.84;;;17.39;40.63
67738;BME280;54534;43.612;1.572;2023-02-13T08:12:35;100788.19;;;17.39;40.41
67738;BME280;54534;43.612;1.572;2023-02-13T08:15:01;100787.34;;;17.38;40.71
67738;BME280;54534;43.612;1.572;2023-02-13T08:17:26;100790.00;;;17.38;40.54
67738;BME280;54534;43.612;1.572;2023-02-13T08:19:51;100789.13;;;17.38;40.75
67738;BME280;54534;43.612;1.572;2023-02-13T08:22:17;100784.75;;;17.37;40.64
67738;BME280;54534;43.612;1.572;2023-02-13T08:24:42;100793.59;;;17.37;40.59
67738;BME280;54534;43.612;1.572;2023-02-13T08:27:13;100783.03;;;17.36;40.62
67738;BME280;54534;43.612;1.572;2023-02-13T08:29:39;100801.47;;;17.39;40.43
67738;BME280;54534;43.612;1.572;2023-02-13T08:32:04;100797.03;;;17.39;40.38
67738;BME280;54534;43.612;1.572;2023-02-13T08:34:30;100804.13;;;17.39;40.72
67738;BME280;54534;43.612;1.572;2023-02-13T08:36:55;100810.25;;;17.41;40.54
67738;BME280;54534;43.612;1.572;2023-02-13T08:39:21;100806.78;;;17.39;40.42
67738;BME280;54534;43.612;1.572;2023-02-13T08:41:46;100802.34;;;17.39;40.47
67738;BME280;54534;43.612;1.572;2023-02-13T08:44:11;100804.06;;;17.40;40.16
67738;BME280;54534;43.612;1.572;2023-02-13T08:46:37;100800.56;;;17.40;40.29
67738;BME280;54534;43.612;1.572;2023-02-13T08:49:02;100799.69;;;17.39;40.28
67738;BME280;54534;43.612;1.572;2023-02-13T08:51:28;100796.16;;;17.39;40.46
67738;BME280;54534;43.612;1.572;2023-02-13T08:53:53;100802.34;;;17.39;40.46
67738;BME280;54534;43.612;1.572;2023-02-13T08:56:18;100801.41;;;17.40;40.58
67738;BME280;54534;43.612;1.572;2023-02-13T08:58:47;100805.00;;;17.39;40.31
67738;BME280;54534;43.612;1.572;2023-02-13T09:01:13;100802.34;;;17.39;40.04
67738;BME280;54534;43.612;1.572;2023-02-13T09:03:38;100797.97;;;17.38;40.16
67738;BME280;54534;43.612;1.572;2023-02-13T09:06:04;100799.69;;;17.39;40.19
67738;BME280;54534;43.612;1.572;2023-02-13T09:08:29;100803.28;;;17.38;40.48
67738;BME280;54534;43.612;1.572;2023-02-13T09:10:59;100798.75;;;17.40;40.29
67738;BME280;54534;43.612;1.572;2023-02-13T09:13:27;100803.22;;;17.40;40.15
67738;BME280;54534;43.612;1.572;2023-02-13T09:15:52;100806.78;;;17.39;39.92
67738;BME280;54534;43.612;1.572;2023-02-13T09:18:18;100812.97;;;17.39;40.38
67738;BME280;54534;43.612;1.572;2023-02-13T09:20:43;100810.25;;;17.41;40.34
67738;BME280;54534;43.612;1.572;2023-02-13T09:23:08;100807.66;;;17.39;40.10
67738;BME280;54534;43.612;1.572;2023-02-13T09:25:34;100807.66;;;17.39;40.17
67738;BME280;54534;43.612;1.572;2023-02-13T09:28:00;100817.44;;;17.39;40.31
67738;BME280;54534;43.612;1.572;2023-02-13T09:30:26;100802.34;;;17.39;40.15
67738;BME280;54534;43.612;1.572;2023-02-13T09:32:52;100807.66;;;17.39;40.23
67738;BME280;54534;43.612;1.572;2023-02-13T09:35:20;100802.34;;;17.39;40.17
67738;BME280;54534;43.612;1.572;2023-02-13T09:37:46;100813.84;;;17.40;40.13
67738;BME280;54534;43.612;1.572;2023-02-13T09:40:19;100807.66;;;17.39;40.06
67738;BME280;54534;43.612;1.572;2023-02-13T09:42:46;100813.13;;;17.36;40.00
67738;BME280;54534;43.612;1.572;2023-02-13T09:45:13;100810.31;;;17.39;40.01
67738;BME280;54534;43.612;1.572;2023-02-13T09:47:42;100820.94;;;17.39;40.34
67738;BME280;54534;43.612;1.572;2023-02-13T09:50:22;100812.97;;;17.39;40.35
67738;BME280;54534;43.612;1.572;2023-02-13T09:52:49;100814.00;;;17.37;40.37
67738;BME280;54534;43.612;1.572;2023-02-13T09:55:23;100806.88;;;17.37;40.08
67738;BME280;54534;43.612;1.572;2023-02-13T10:00:52;100812.97;;;17.39;40.23
67738;BME280;54534;43.612;1.572;2023-02-13T10:12:16;100800.63;;;17.38;39.93
67738;BME280;54534;43.612;1.572;2023-02-13T10:17:52;100805.97;;;17.38;40.18
67738;BME280;54534;43.612;1.572;2023-02-13T10:20:33;100805.09;;;17.38;39.94
67738;BME280;54534;43.612;1.572;2023-02-13T10:25:59;100798.03;;;17.37;40.19
67738;BME280;54534;43.612;1.572;2023-02-13T10:31:05;100800.63;;;17.38;40.03
67738;BME280;54534;43.612;1.572;2023-02-13T10:33:57;100802.34;;;17.39;40.18
67738;BME280;54534;43.612;1.572;2023-02-13T10:36:28;100794.44;;;17.38;39.94
67738;BME280;54534;43.612;1.572;2023-02-13T10:38:59;100796.16;;;17.39;40.15
67738;BME280;54534;43.612;1.572;2023-02-13T10:44:19;100790.84;;;17.39;39.83
67738;BME280;54534;43.612;1.572;2023-02-13T10:47:02;100802.34;;;17.39;39.83
67738;BME280;54534;43.612;1.572;2023-02-13T10:50:05;100804.13;;;17.39;40.16
67738;BME280;54534;43.612;1.572;2023-02-13T10:53:33;100799.69;;;17.39;39.96
67738;BME280;54534;43.612;1.572;2023-02-13T10:56:09;100798.81;;;17.39;39.74
67738;BME280;54534;43.612;1.572;2023-02-13T11:01:26;100783.88;;;17.36;39.95
67738;BME280;54534;43.612;1.572;2023-02-13T11:04:12;100788.28;;;17.37;39.75
67738;BME280;54534;43.612;1.572;2023-02-13T11:06:48;100782.94;;;17.37;39.67
67738;BME280;54534;43.612;1.572;2023-02-13T11:09:15;100788.28;;;17.37;40.11
67738;BME280;54534;43.612;1.572;2023-02-13T11:11:41;100781.16;;;17.38;39.98
67738;BME280;54534;43.612;1.572;2023-02-13T11:14:22;100771.38;;;17.38;39.86
67738;BME280;54534;43.612;1.572;2023-02-13T11:16:52;100772.22;;;17.39;39.88
67738;BME280;54534;43.612;1.572;2023-02-13T11:19:25;100769.50;;;17.40;40.07
67738;BME280;54534;43.612;1.572;2023-02-13T11:21:57;100762.47;;;17.39;40.03
67738;BME280;54534;43.612;1.572;2023-02-13T11:24:25;100773.09;;;17.39;39.71
67738;BME280;54534;43.612;1.572;2023-02-13T11:26:55;100766.84;;;17.40;40.04
67738;BME280;54534;43.612;1.572;2023-02-13T11:29:28;100766.84;;;17.40;39.59
67738;BME280;54534;43.612;1.572;2023-02-13T11:32:21;100757.91;;;17.41;39.79
67738;BME280;54534;43.612;1.572;2023-02-13T11:34:48;100753.56;;;17.40;39.87
67738;BME280;54534;43.612;1.572;2023-02-13T11:37:18;100747.28;;;17.41;39.74
67738;BME280;54534;43.612;1.572;2023-02-13T11:39:46;100749.94;;;17.41;39.87
67738;BME280;54534;43.612;1.572;2023-02-13T11:42:16;100747.28;;;17.41;39.81
67738;BME280;54534;43.612;1.572;2023-02-13T11:44:49;100748.16;;;17.42;39.97
67738;BME280;54534;43.612;1.572;2023-02-13T11:47:15;100733.06;;;17.42;39.94
67738;BME280;54534;43.612;1.572;2023-02-13T11:49:53;100739.31;;;17.41;39.63
67738;BME280;54534;43.612;1.572;2023-02-13T11:52:24;100742.84;;;17.42;39.69
67738;BME280;54534;43.612;1.572;2023-02-13T11:54:59;100734.84;;;17.42;39.70
67738;BME280;54534;43.612;1.572;2023-02-13T11:57:34;100737.59;;;17.40;39.78
67738;BME280;54534;43.612;1.572;2023-02-13T12:00:29;100739.25;;;17.43;39.95
67738;BME280;54534;43.612;1.572;2023-02-13T12:02:52;100740.09;;;17.43;39.67
67738;BME280;54534;43.612;1.572;2023-02-13T12:05:26;100731.28;;;17.43;39.73
67738;BME280;54534;43.612;1.572;2023-02-13T12:07:57;100738.38;;;17.42;39.99
67738;BME280;54534;43.612;1.572;2023-02-13T12:10:29;100729.47;;;17.43;39.55
67738;BME280;54534;43.612;1.572;2023-02-13T12:13:05;100726.81;;;17.43;39.95
67738;BME280;54534;43.612;1.572;2023-02-13T12:15:35;100724.16;;;17.43;39.72
67738;BME280;54534;43.612;1.572;2023-02-13T12:24:28;100715.22;;;17.44;39.82
67738;BME280;54534;43.612;1.572;2023-02-13T12:26:58;100715.22;;;17.44;39.69
67738;BME280;54534;43.612;1.572;2023-02-13T12:29:36;100709.91;;;17.44;39.97
67738;BME280;54534;43.612;1.572;2023-02-13T12:32:16;100704.59;;;17.44;39.76
67738;BME280;54534;43.612;1.572;2023-02-13T12:46:05;100703.72;;;17.44;39.60
67738;BME280;54534;43.612;1.572;2023-02-13T13:16:07;100655.69;;;17.47;39.84
67738;BME280;54534;43.612;1.572;2023-02-13T13:21:21;100653.03;;;17.47;39.85
67738;BME280;54534;43.612;1.572;2023-02-13T13:23:48;100646.84;;;17.47;39.70
67738;BME280;54534;43.612;1.572;2023-02-13T13:26:20;100644.19;;;17.47;39.92
67738;BME280;54534;43.612;1.572;2023-02-13T13:28:52;100644.19;;;17.47;39.69
67738;BME280;54534;43.612;1.572;2023-02-13T13:31:20;100641.47;;;17.48;39.73
67738;BME280;54534;43.612;1.572;2023-02-13T13:33:48;100646.72;;;17.50;40.02
67738;BME280;54534;43.612;1.572;2023-02-13T13:36:44;100639.69;;;17.49;39.62
67738;BME280;54534;43.612;1.572;2023-02-13T13:42:33;100634.38;;;17.49;39.75
67738;BME280;54534;43.612;1.572;2023-02-13T13:47:45;100625.44;;;17.50;40.07
67738;BME280;54534;43.612;1.572;2023-02-13T13:50:23;100626.28;;;17.50;39.72
67738;BME280;54534;43.612;1.572;2023-02-13T13:53:07;100619.19;;;17.51;39.76
67738;BME280;54534;43.612;1.572;2023-02-13T14:03:47;100622.72;;;17.51;39.91
67738;BME280;54534;43.612;1.572;2023-02-13T14:06:16;100624.56;;;17.49;39.90
67738;BME280;54534;43.612;1.572;2023-02-13T14:11:34;100624.50;;;17.51;39.93
67738;BME280;54534;43.612;1.572;2023-02-13T14:14:01;100613.88;;;17.51;39.95
67738;BME280;54534;43.612;1.572;2023-02-13T14:19:24;100615.56;;;17.52;40.03
67738;BME280;54534;43.612;1.572;2023-02-13T14:21:50;100614.72;;;17.51;40.11
67738;BME280;54534;43.612;1.572;2023-02-13T14:24:18;100625.38;;;17.51;40.18
67738;BME280;54534;43.612;1.572;2023-02-13T14:27:02;100627.06;;;17.52;39.74
67738;BME280;54534;43.612;1.572;2023-02-13T14:29:32;100628.81;;;17.53;40.07
67738;BME280;54534;43.612;1.572;2023-02-13T14:32:04;100613.72;;;17.54;39.79
67738;BME280;54534;43.612;1.572;2023-02-13T14:34:34;100620.81;;;17.53;39.88
67738;BME280;54534;43.612;1.572;2023-02-13T14:39:35;100619.88;;;17.54;40.06
67738;BME280;54534;43.612;1.572;2023-02-13T14:42:22;100616.28;;;17.55;39.79
67738;BME280;54534;43.612;1.572;2023-02-13T14:44:50;100618.84;;;17.57;40.13
67738;BME280;54534;43.612;1.572;2023-02-13T14:49:51;100615.41;;;17.55;40.07
67738;BME280;54534;43.612;1.572;2023-02-13T14:52:21;100614.47;;;17.56;39.91
67738;BME280;54534;43.612;1.572;2023-02-13T14:55:22;100617.13;;;17.56;39.85
67738;BME280;54534;43.612;1.572;2023-02-13T14:57:59;100618.06;;;17.55;39.89
67738;BME280;54534;43.612;1.572;2023-02-13T15:00:56;100616.28;;;17.55;39.91
67738;BME280;54534;43.612;1.572;2023-02-13T15:03:41;100615.41;;;17.55;40.07
67738;BME280;54534;43.612;1.572;2023-02-13T15:06:15;100615.41;;;17.55;40.11
67738;BME280;54534;43.612;1.572;2023-02-13T15:08:49;100616.28;;;17.55;40.20
67738;BME280;54534;43.612;1.572;2023-02-13T15:11:40;100609.16;;;17.56;40.12
67738;BME280;54534;43.612;1.572;2023-02-13T15:14:32;100608.19;;;17.57;40.27
67738;BME280;54534;43.612;1.572;2023-02-13T15:19:50;100605.53;;;17.57;39.86
67738;BME280;54534;43.612;1.572;2023-02-13T15:22:19;100603.84;;;17.56;40.20